Sahiwal Weather



Sahiwal's Current Weather

Temprature 39.7o few clouds

few clouds

Rain: 0 %

Min Temprature39.7o
Max Temprature39.7o
Humidity14
Wind Speed0.76 m/h
Sun Rise05:17:58
Sun Set18:50:14
Current Time: 08-May-2021 15:01:02
Lat/Lon: 30.6667, 73.1




Sahiwal's Geo Location



Sahiwal's Weather Forecast

Time Overall Temp Min Temp Max Temp Humidity Wind Speed Rain
08-May-2021 (Sat)
17:00:00 few clouds 39.340 37.070 39.340 16 4.42 m/h 0 %
20:00:00 light rain 33.160 29.500 33.160 29 7.52 m/h 29 %
23:00:00 light rain 29.660 29.660 29.660 29 2.79 m/h 11 %
09-May-2021 (Sun)
02:00:00 clear sky 28.060 28.060 28.060 32 2.54 m/h 0 %
05:00:00 scattered clouds 27.560 27.560 27.560 32 1.41 m/h 0 %
08:00:00 scattered clouds 33.500 33.500 33.500 22 3.17 m/h 0 %
11:00:00 scattered clouds 39.560 39.560 39.560 14 4.9 m/h 0 %
14:00:00 few clouds 42.070 42.070 42.070 9 3.19 m/h 0 %
17:00:00 light rain 37.770 37.770 37.770 15 3.18 m/h 24 %
20:00:00 scattered clouds 32.180 32.180 32.180 22 3.54 m/h 0 %
23:00:00 scattered clouds 29.450 29.450 29.450 33 6.22 m/h 0 %
10-May-2021 (Mon)
02:00:00 clear sky 27.560 27.560 27.560 36 3.27 m/h 0 %
05:00:00 light rain 26.660 26.660 26.660 39 3.35 m/h 22 %
08:00:00 light rain 33.280 33.280 33.280 23 3.43 m/h 10 %
11:00:00 scattered clouds 39.490 39.490 39.490 14 2.76 m/h 0 %
14:00:00 broken clouds 43.090 43.090 43.090 9 1.87 m/h 0 %
17:00:00 broken clouds 42.290 42.290 42.290 9 4.29 m/h 0 %
20:00:00 scattered clouds 33.690 33.690 33.690 20 5.91 m/h 0 %
23:00:00 scattered clouds 31.850 31.850 31.850 24 5.64 m/h 0 %
11-May-2021 (Tue)
02:00:00 broken clouds 29.800 29.800 29.800 30 4.39 m/h 0 %
05:00:00 broken clouds 28.320 28.320 28.320 35 3.38 m/h 0 %
08:00:00 few clouds 34.670 34.670 34.670 22 3.01 m/h 0 %
11:00:00 clear sky 40.650 40.650 40.650 14 3.2 m/h 0 %
14:00:00 clear sky 43.720 43.720 43.720 10 4.26 m/h 0 %
17:00:00 light rain 26.530 26.530 26.530 48 10.27 m/h 193 %
20:00:00 light rain 31.650 31.650 31.650 28 7.47 m/h 18 %
23:00:00 overcast clouds 30.510 30.510 30.510 33 5.84 m/h 0 %
12-May-2021 (Wed)
02:00:00 overcast clouds 29.460 29.460 29.460 35 3.27 m/h 0 %
05:00:00 overcast clouds 28.030 28.030 28.030 38 2.65 m/h 0 %
08:00:00 overcast clouds 32.150 32.150 32.150 29 1.82 m/h 0 %
11:00:00 broken clouds 38.190 38.190 38.190 19 1.44 m/h 0 %
14:00:00 broken clouds 38.330 38.330 38.330 18 2.82 m/h 0 %
17:00:00 heavy intensity rain 22.050 22.050 22.050 74 9.8 m/h 1,953 %
20:00:00 moderate rain 26.320 26.320 26.320 50 4.47 m/h 580 %
23:00:00 overcast clouds 25.280 25.280 25.280 57 3.67 m/h 0 %
13-May-2021 (Thu)
02:00:00 overcast clouds 24.710 24.710 24.710 62 1.06 m/h 0 %
05:00:00 overcast clouds 24.270 24.270 24.270 67 1.67 m/h 0 %
08:00:00 broken clouds 27.290 27.290 27.290 52 2.95 m/h 0 %
11:00:00 scattered clouds 32.200 32.200 32.200 36 3.93 m/h 0 %
14:00:00 scattered clouds 34.850 34.850 34.850 29 3.19 m/h 0 %

Famous Cities (60)